KMIE/MIE METAR and TAF weather

Enter ICAO airport designator
Station Type Date Time Source
KMIE METAR 2019/10/20 18:53 UTC NOAA

KMIE 201853Z 00000KT 10SM BKN055 22/07 A2988 RMK AO2 SLP110 T02220067


Station Type Date Time Source
KMIE Decoded METAR 2019/10/20 18:53 UTC NOAA

MUNCIE DELAWARE JOHNSON, IN, United States (KMIE) 40-14N 85-24W 285M
Oct 20, 2019 - 02:53 PM EDT / 2019.10.20 1853 UTC
Wind: Calm:0
Visibility: 10 mile(s):0
Sky conditions: mostly cloudy
Temperature: 72.0 F (22.2 C)
Dew Point: 44.1 F (6.7 C)
Relative Humidity: 36%
Pressure (altimeter): 29.88 in. Hg (1011 hPa)
ob: KMIE 201853Z 00000KT 10SM BKN055 22/07 A2988 RMK AO2 SLP110 T02220067
cycle: 19

Station Type Date Time Source
KMIE TAF UTC NOAA

Error!

Example: see airport list